sensor_id;sensor_type;location;lat;lon;timestamp;temperature;humidity
19224;DHT22;9746;47.180;9.776;2022-08-02T10:57:44;32.60;99.90
19224;DHT22;9746;47.180;9.776;2022-08-02T11:00:25;32.90;99.90
19224;DHT22;9746;47.180;9.776;2022-08-02T11:02:53;33.10;99.90
19224;DHT22;9746;47.180;9.776;2022-08-02T11:05:27;33.30;99.90
19224;DHT22;9746;47.180;9.776;2022-08-02T11:07:55;33.30;99.90
19224;DHT22;9746;47.180;9.776;2022-08-02T11:10:34;33.20;99.90
19224;DHT22;9746;47.180;9.776;2022-08-02T11:13:11;33.50;99.90
19224;DHT22;9746;47.180;9.776;2022-08-02T11:15:52;33.70;99.90
19224;DHT22;9746;47.180;9.776;2022-08-02T11:18:21;33.90;99.90
19224;DHT22;9746;47.180;9.776;2022-08-02T11:23:55;34.20;99.90
19224;DHT22;9746;47.180;9.776;2022-08-02T11:26:44;34.30;99.90
19224;DHT22;9746;47.180;9.776;2022-08-02T11:29:13;34.40;99.90
19224;DHT22;9746;47.180;9.776;2022-08-02T11:31:43;34.50;99.90
19224;DHT22;9746;47.180;9.776;2022-08-02T11:34:12;34.80;99.90
19224;DHT22;9746;47.180;9.776;2022-08-02T11:36:43;35.00;99.90
19224;DHT22;9746;47.180;9.776;2022-08-02T11:39:13;35.10;99.90
19224;DHT22;9746;47.180;9.776;2022-08-02T11:41:41;35.40;99.90
19224;DHT22;9746;47.180;9.776;2022-08-02T11:44:09;35.70;99.90
19224;DHT22;9746;47.180;9.776;2022-08-02T11:46:38;35.80;99.90
19224;DHT22;9746;47.180;9.776;2022-08-02T11:49:16;35.70;99.90
19224;DHT22;9746;47.180;9.776;2022-08-02T11:51:51;36.10;99.90
19224;DHT22;9746;47.180;9.776;2022-08-02T11:54:23;36.50;99.90
19224;DHT22;9746;47.180;9.776;2022-08-02T11:56:51;36.90;99.90
19224;DHT22;9746;47.180;9.776;2022-08-02T11:59:18;37.20;99.90
19224;DHT22;9746;47.180;9.776;2022-08-02T12:01:47;37.50;99.90
19224;DHT22;9746;47.180;9.776;2022-08-02T12:04:17;37.70;99.90
19224;DHT22;9746;47.180;9.776;2022-08-02T12:06:56;37.60;99.90
19224;DHT22;9746;47.180;9.776;2022-08-02T12:09:25;37.30;99.90
19224;DHT22;9746;47.180;9.776;2022-08-02T12:11:57;37.50;99.90
19224;DHT22;9746;47.180;9.776;2022-08-02T12:14:27;37.60;99.50
19224;DHT22;9746;47.180;9.776;2022-08-02T12:16:58;36.90;98.80
19224;DHT22;9746;47.180;9.776;2022-08-02T12:19:43;37.20;98.40
19224;DHT22;9746;47.180;9.776;2022-08-02T12:22:15;37.60;98.60
19224;DHT22;9746;47.180;9.776;2022-08-02T12:24:46;38.50;99.90
19224;DHT22;9746;47.180;9.776;2022-08-02T12:27:34;38.70;95.90
19224;DHT22;9746;47.180;9.776;2022-08-02T12:30:05;38.70;94.80
19224;DHT22;9746;47.180;9.776;2022-08-02T12:32:36;38.70;94.10
19224;DHT22;9746;47.180;9.776;2022-08-02T12:35:09;39.00;93.50
19224;DHT22;9746;47.180;9.776;2022-08-02T12:37:39;39.40;92.90
19224;DHT22;9746;47.180;9.776;2022-08-02T12:40:25;39.40;92.10
19224;DHT22;9746;47.180;9.776;2022-08-02T12:42:56;39.90;91.00
19224;DHT22;9746;47.180;9.776;2022-08-02T12:45:24;40.50;91.70
19224;DHT22;9746;47.180;9.776;2022-08-02T12:47:57;40.20;87.90
19224;DHT22;9746;47.180;9.776;2022-08-02T12:50:28;40.30;85.70
19224;DHT22;9746;47.180;9.776;2022-08-02T12:53:09;40.00;86.40
19224;DHT22;9746;47.180;9.776;2022-08-02T12:55:46;40.40;86.80
19224;DHT22;9746;47.180;9.776;2022-08-02T12:58:14;41.00;86.40
19224;DHT22;9746;47.180;9.776;2022-08-02T13:00:42;41.50;81.20
19224;DHT22;9746;47.180;9.776;2022-08-02T13:03:11;41.60;81.70
19224;DHT22;9746;47.180;9.776;2022-08-02T13:05:39;41.70;79.70
19224;DHT22;9746;47.180;9.776;2022-08-02T13:08:07;42.40;81.90
19224;DHT22;9746;47.180;9.776;2022-08-02T13:10:34;42.00;80.60
19224;DHT22;9746;47.180;9.776;2022-08-02T13:13:02;42.70;79.80
19224;DHT22;9746;47.180;9.776;2022-08-02T13:15:29;43.50;76.40
19224;DHT22;9746;47.180;9.776;2022-08-02T13:17:57;42.70;77.00
19224;DHT22;9746;47.180;9.776;2022-08-02T13:20:28;41.90;75.90
19224;DHT22;9746;47.180;9.776;2022-08-02T13:22:56;41.90;75.00
19224;DHT22;9746;47.180;9.776;2022-08-02T13:25:23;40.80;77.80
19224;DHT22;9746;47.180;9.776;2022-08-02T13:27:51;41.00;78.50
19224;DHT22;9746;47.180;9.776;2022-08-02T13:30:19;41.10;77.70
19224;DHT22;9746;47.180;9.776;2022-08-02T13:32:46;41.90;77.30
19224;DHT22;9746;47.180;9.776;2022-08-02T13:35:14;41.70;77.90
19224;DHT22;9746;47.180;9.776;2022-08-02T13:37:43;42.50;75.50
19224;DHT22;9746;47.180;9.776;2022-08-02T13:40:12;43.00;75.70
19224;DHT22;9746;47.180;9.776;2022-08-02T13:42:40;44.00;75.10
19224;DHT22;9746;47.180;9.776;2022-08-02T13:45:09;44.20;71.40
19224;DHT22;9746;47.180;9.776;2022-08-02T13:47:38;44.40;71.70
19224;DHT22;9746;47.180;9.776;2022-08-02T13:50:06;44.90;71.10
19224;DHT22;9746;47.180;9.776;2022-08-02T13:52:34;44.80;70.40
19224;DHT22;9746;47.180;9.776;2022-08-02T13:55:04;44.80;68.90
19224;DHT22;9746;47.180;9.776;2022-08-02T13:57:32;45.00;67.50
19224;DHT22;9746;47.180;9.776;2022-08-02T13:59:59;43.00;71.00
19224;DHT22;9746;47.180;9.776;2022-08-02T14:02:27;43.10;71.60
19224;DHT22;9746;47.180;9.776;2022-08-02T14:04:55;42.50;71.50
19224;DHT22;9746;47.180;9.776;2022-08-02T14:07:22;43.00;70.20
19224;DHT22;9746;47.180;9.776;2022-08-02T14:09:50;42.70;70.80
19224;DHT22;9746;47.180;9.776;2022-08-02T14:12:19;43.30;71.20
19224;DHT22;9746;47.180;9.776;2022-08-02T14:14:47;44.20;71.00
19224;DHT22;9746;47.180;9.776;2022-08-02T14:17:15;45.30;69.30
19224;DHT22;9746;47.180;9.776;2022-08-02T14:19:43;46.10;68.20
19224;DHT22;9746;47.180;9.776;2022-08-02T14:22:11;46.50;66.60
19224;DHT22;9746;47.180;9.776;2022-08-02T14:24:39;46.10;65.50
19224;DHT22;9746;47.180;9.776;2022-08-02T14:27:08;46.60;65.70
19224;DHT22;9746;47.180;9.776;2022-08-02T14:29:37;45.60;64.90
19224;DHT22;9746;47.180;9.776;2022-08-02T14:32:05;44.30;67.60
19224;DHT22;9746;47.180;9.776;2022-08-02T14:34:32;43.50;67.40
19224;DHT22;9746;47.180;9.776;2022-08-02T14:37:00;43.70;67.70
19224;DHT22;9746;47.180;9.776;2022-08-02T14:39:28;44.20;66.70
19224;DHT22;9746;47.180;9.776;2022-08-02T14:41:56;44.30;68.20
19224;DHT22;9746;47.180;9.776;2022-08-02T14:44:24;44.80;66.80
19224;DHT22;9746;47.180;9.776;2022-08-02T14:46:53;43.80;67.60
19224;DHT22;9746;47.180;9.776;2022-08-02T14:49:20;43.50;68.40
19224;DHT22;9746;47.180;9.776;2022-08-02T14:51:48;43.50;68.30
19224;DHT22;9746;47.180;9.776;2022-08-02T14:54:16;43.70;68.40
19224;DHT22;9746;47.180;9.776;2022-08-02T14:56:44;43.20;68.30
19224;DHT22;9746;47.180;9.776;2022-08-02T14:59:11;43.00;69.00
19224;DHT22;9746;47.180;9.776;2022-08-02T15:01:38;42.10;69.70
19224;DHT22;9746;47.180;9.776;2022-08-02T15:04:08;42.70;71.70
19224;DHT22;9746;47.180;9.776;2022-08-02T15:06:35;42.90;70.50
19224;DHT22;9746;47.180;9.776;2022-08-02T15:09:03;43.30;69.30
19224;DHT22;9746;47.180;9.776;2022-08-02T15:11:30;43.70;70.10
19224;DHT22;9746;47.180;9.776;2022-08-02T15:13:57;44.10;67.80
19224;DHT22;9746;47.180;9.776;2022-08-02T15:16:25;43.80;67.90
19224;DHT22;9746;47.180;9.776;2022-08-02T15:18:54;44.40;68.70
19224;DHT22;9746;47.180;9.776;2022-08-02T15:21:23;43.90;66.60
19224;DHT22;9746;47.180;9.776;2022-08-02T15:23:50;43.60;67.50
19224;DHT22;9746;47.180;9.776;2022-08-02T15:26:18;43.00;68.10
19224;DHT22;9746;47.180;9.776;2022-08-02T15:28:46;42.90;68.40
19224;DHT22;9746;47.180;9.776;2022-08-02T15:31:14;43.10;67.80
19224;DHT22;9746;47.180;9.776;2022-08-02T15:33:42;42.90;68.40
19224;DHT22;9746;47.180;9.776;2022-08-02T15:36:10;42.90;68.20
19224;DHT22;9746;47.180;9.776;2022-08-02T15:38:39;42.40;68.60
19224;DHT22;9746;47.180;9.776;2022-08-02T15:41:06;42.50;68.40
19224;DHT22;9746;47.180;9.776;2022-08-02T15:43:37;42.60;70.20
19224;DHT22;9746;47.180;9.776;2022-08-02T15:46:04;42.80;69.20
19224;DHT22;9746;47.180;9.776;2022-08-02T15:48:32;41.90;68.80
19224;DHT22;9746;47.180;9.776;2022-08-02T15:51:00;42.00;70.10
19224;DHT22;9746;47.180;9.776;2022-08-02T15:53:27;42.40;68.40
19224;DHT22;9746;47.180;9.776;2022-08-02T15:55:56;42.70;68.70
19224;DHT22;9746;47.180;9.776;2022-08-02T15:58:24;42.70;67.00
19224;DHT22;9746;47.180;9.776;2022-08-02T16:00:51;42.40;68.20
19224;DHT22;9746;47.180;9.776;2022-08-02T16:03:28;42.50;67.80
19224;DHT22;9746;47.180;9.776;2022-08-02T16:05:56;42.20;68.00
19224;DHT22;9746;47.180;9.776;2022-08-02T16:08:23;42.40;68.20
19224;DHT22;9746;47.180;9.776;2022-08-02T16:10:52;41.40;68.40
19224;DHT22;9746;47.180;9.776;2022-08-02T16:13:21;40.80;69.40
19224;DHT22;9746;47.180;9.776;2022-08-02T16:16:06;40.70;70.10
19224;DHT22;9746;47.180;9.776;2022-08-02T16:18:42;40.80;70.00
19224;DHT22;9746;47.180;9.776;2022-08-02T16:21:10;41.10;70.30
19224;DHT22;9746;47.180;9.776;2022-08-02T16:23:46;41.20;69.30
19224;DHT22;9746;47.180;9.776;2022-08-02T16:26:13;40.50;70.00
19224;DHT22;9746;47.180;9.776;2022-08-02T16:31:58;40.00;70.80
19224;DHT22;9746;47.180;9.776;2022-08-02T16:34:25;39.30;71.80
19224;DHT22;9746;47.180;9.776;2022-08-02T16:36:53;38.30;72.50
19224;DHT22;9746;47.180;9.776;2022-08-02T16:39:20;37.40;74.80
19224;DHT22;9746;47.180;9.776;2022-08-02T16:41:47;36.00;76.70
19224;DHT22;9746;47.180;9.776;2022-08-02T16:44:17;35.50;77.80
19224;DHT22;9746;47.180;9.776;2022-08-02T16:46:45;34.40;80.00
19224;DHT22;9746;47.180;9.776;2022-08-02T16:49:14;33.60;81.60
19224;DHT22;9746;47.180;9.776;2022-08-02T16:51:42;32.70;83.40
19224;DHT22;9746;47.180;9.776;2022-08-02T16:54:09;32.30;83.90
19224;DHT22;9746;47.180;9.776;2022-08-02T16:56:37;32.10;84.90
19224;DHT22;9746;47.180;9.776;2022-08-02T16:59:06;31.80;85.20
19224;DHT22;9746;47.180;9.776;2022-08-02T17:01:34;31.50;85.90
19224;DHT22;9746;47.180;9.776;2022-08-02T17:04:01;31.00;86.70
19224;DHT22;9746;47.180;9.776;2022-08-02T17:06:30;30.90;87.30
19224;DHT22;9746;47.180;9.776;2022-08-02T17:08:58;30.80;87.90
19224;DHT22;9746;47.180;9.776;2022-08-02T17:11:25;30.80;88.20
19224;DHT22;9746;47.180;9.776;2022-08-02T17:13:52;30.90;88.50
19224;DHT22;9746;47.180;9.776;2022-08-02T17:16:20;30.80;89.10
19224;DHT22;9746;47.180;9.776;2022-08-02T17:18:47;30.70;90.00
19224;DHT22;9746;47.180;9.776;2022-08-02T17:21:15;30.80;89.10
19224;DHT22;9746;47.180;9.776;2022-08-02T17:23:44;30.80;90.00
19224;DHT22;9746;47.180;9.776;2022-08-02T17:26:11;30.80;90.50
19224;DHT22;9746;47.180;9.776;2022-08-02T17:28:39;30.80;92.40
19224;DHT22;9746;47.180;9.776;2022-08-02T17:31:06;30.80;90.50
19224;DHT22;9746;47.180;9.776;2022-08-02T17:33:37;30.80;90.10
19224;DHT22;9746;47.180;9.776;2022-08-02T17:36:05;30.80;90.60
19224;DHT22;9746;47.180;9.776;2022-08-02T17:38:32;30.70;91.00
19224;DHT22;9746;47.180;9.776;2022-08-02T17:41:01;30.60;91.20
19224;DHT22;9746;47.180;9.776;2022-08-02T17:43:29;30.60;91.20
19224;DHT22;9746;47.180;9.776;2022-08-02T17:45:57;30.60;91.90
19224;DHT22;9746;47.180;9.776;2022-08-02T17:48:24;30.50;91.70
19224;DHT22;9746;47.180;9.776;2022-08-02T17:50:51;30.50;91.70
19224;DHT22;9746;47.180;9.776;2022-08-02T17:53:19;30.40;91.40
19224;DHT22;9746;47.180;9.776;2022-08-02T17:55:46;30.30;91.30
19224;DHT22;9746;47.180;9.776;2022-08-02T17:58:15;30.20;91.60
19224;DHT22;9746;47.180;9.776;2022-08-02T18:00:43;30.10;92.30
19224;DHT22;9746;47.180;9.776;2022-08-02T18:03:10;30.00;92.50
19224;DHT22;9746;47.180;9.776;2022-08-02T18:05:38;29.90;92.80
19224;DHT22;9746;47.180;9.776;2022-08-02T18:08:05;29.80;93.30
19224;DHT22;9746;47.180;9.776;2022-08-02T18:10:32;29.70;93.30
19224;DHT22;9746;47.180;9.776;2022-08-02T18:13:00;29.50;93.90
19224;DHT22;9746;47.180;9.776;2022-08-02T18:15:31;29.40;93.60
19224;DHT22;9746;47.180;9.776;2022-08-02T18:17:59;29.20;93.40
19224;DHT22;9746;47.180;9.776;2022-08-02T18:20:26;29.10;93.50
19224;DHT22;9746;47.180;9.776;2022-08-02T18:22:54;28.90;93.80
19224;DHT22;9746;47.180;9.776;2022-08-02T18:25:21;28.90;93.80
19224;DHT22;9746;47.180;9.776;2022-08-02T18:27:49;28.70;94.20
19224;DHT22;9746;47.180;9.776;2022-08-02T18:30:17;28.60;94.30
19224;DHT22;9746;47.180;9.776;2022-08-02T18:32:46;28.50;94.50
19224;DHT22;9746;47.180;9.776;2022-08-02T18:35:14;28.30;95.20
19224;DHT22;9746;47.180;9.776;2022-08-02T18:37:42;28.20;95.40
19224;DHT22;9746;47.180;9.776;2022-08-02T18:40:11;28.10;96.50
19224;DHT22;9746;47.180;9.776;2022-08-02T18:42:39;28.00;97.90
19224;DHT22;9746;47.180;9.776;2022-08-02T18:45:08;27.90;99.00
19224;DHT22;9746;47.180;9.776;2022-08-02T18:47:36;27.80;99.50
19224;DHT22;9746;47.180;9.776;2022-08-02T18:50:07;27.60;99.90
19224;DHT22;9746;47.180;9.776;2022-08-02T18:52:34;27.20;99.90
19224;DHT22;9746;47.180;9.776;2022-08-02T18:55:03;26.80;99.90
19224;DHT22;9746;47.180;9.776;2022-08-02T18:57:30;26.60;99.90
19224;DHT22;9746;47.180;9.776;2022-08-02T18:59:59;26.40;99.90
19224;DHT22;9746;47.180;9.776;2022-08-02T19:02:26;26.20;99.90
19224;DHT22;9746;47.180;9.776;2022-08-02T19:04:55;25.90;99.90
19224;DHT22;9746;47.180;9.776;2022-08-02T19:07:24;25.70;99.90
19224;DHT22;9746;47.180;9.776;2022-08-02T19:09:52;25.50;99.90
19224;DHT22;9746;47.180;9.776;2022-08-02T19:12:19;25.10;99.90
19224;DHT22;9746;47.180;9.776;2022-08-02T19:14:48;24.80;99.90
19224;DHT22;9746;47.180;9.776;2022-08-02T19:17:15;24.70;99.90
19224;DHT22;9746;47.180;9.776;2022-08-02T19:19:43;24.60;99.90
19224;DHT22;9746;47.180;9.776;2022-08-02T19:22:10;24.50;99.90
19224;DHT22;9746;47.180;9.776;2022-08-02T19:24:40;24.40;99.90
19224;DHT22;9746;47.180;9.776;2022-08-02T19:27:08;24.20;99.90
19224;DHT22;9746;47.180;9.776;2022-08-02T19:29:35;24.00;99.90
19224;DHT22;9746;47.180;9.776;2022-08-02T19:32:05;23.90;99.90
19224;DHT22;9746;47.180;9.776;2022-08-02T19:34:32;24.00;99.90
19224;DHT22;9746;47.180;9.776;2022-08-02T19:37:00;24.00;99.90
19224;DHT22;9746;47.180;9.776;2022-08-02T19:39:27;24.00;99.90
19224;DHT22;9746;47.180;9.776;2022-08-02T19:41:56;24.10;99.90
19224;DHT22;9746;47.180;9.776;2022-08-02T19:44:23;24.10;99.90
19224;DHT22;9746;47.180;9.776;2022-08-02T19:46:51;24.10;99.90
19224;DHT22;9746;47.180;9.776;2022-08-02T19:49:19;24.00;99.90
19224;DHT22;9746;47.180;9.776;2022-08-02T19:51:48;24.10;99.90
19224;DHT22;9746;47.180;9.776;2022-08-02T19:54:16;24.10;99.90
19224;DHT22;9746;47.180;9.776;2022-08-02T19:56:46;24.20;99.90
19224;DHT22;9746;47.180;9.776;2022-08-02T19:59:14;24.20;99.90
19224;DHT22;9746;47.180;9.776;2022-08-02T20:01:42;24.20;99.90
19224;DHT22;9746;47.180;9.776;2022-08-02T20:04:10;24.20;99.90
19224;DHT22;9746;47.180;9.776;2022-08-02T20:06:38;24.20;99.90
19224;DHT22;9746;47.180;9.776;2022-08-02T20:09:07;24.20;99.90
19224;DHT22;9746;47.180;9.776;2022-08-02T20:11:36;24.30;99.90
19224;DHT22;9746;47.180;9.776;2022-08-02T20:14:03;24.20;99.90
19224;DHT22;9746;47.180;9.776;2022-08-02T20:16:33;24.20;99.90
19224;DHT22;9746;47.180;9.776;2022-08-02T20:19:01;24.20;99.90
19224;DHT22;9746;47.180;9.776;2022-08-02T20:21:35;24.20;99.90
19224;DHT22;9746;47.180;9.776;2022-08-02T20:24:03;24.20;99.90
19224;DHT22;9746;47.180;9.776;2022-08-02T20:26:31;24.10;99.90
19224;DHT22;9746;47.180;9.776;2022-08-02T20:28:58;24.00;99.90
19224;DHT22;9746;47.180;9.776;2022-08-02T20:31:26;24.00;99.90
19224;DHT22;9746;47.180;9.776;2022-08-02T20:33:55;24.00;99.90
19224;DHT22;9746;47.180;9.776;2022-08-02T20:36:25;23.90;99.90
19224;DHT22;9746;47.180;9.776;2022-08-02T20:38:52;23.90;99.90
19224;DHT22;9746;47.180;9.776;2022-08-02T20:41:20;23.90;99.90
19224;DHT22;9746;47.180;9.776;2022-08-02T20:43:47;23.90;99.90
19224;DHT22;9746;47.180;9.776;2022-08-02T20:46:15;23.80;99.90
19224;DHT22;9746;47.180;9.776;2022-08-02T20:48:42;23.70;99.90
19224;DHT22;9746;47.180;9.776;2022-08-02T20:51:11;23.60;99.90
19224;DHT22;9746;47.180;9.776;2022-08-02T20:53:39;23.60;99.90
19224;DHT22;9746;47.180;9.776;2022-08-02T20:56:06;23.60;99.90
19224;DHT22;9746;47.180;9.776;2022-08-02T20:58:33;23.60;99.90
19224;DHT22;9746;47.180;9.776;2022-08-02T21:01:01;23.50;99.90
19224;DHT22;9746;47.180;9.776;2022-08-02T21:03:29;23.50;99.90
